createdAt,value
2022-09-13T00:00:05.877Z,10.03
2022-09-13T00:02:34.220Z,10.17
2022-09-13T00:05:02.478Z,10.14
2022-09-13T00:07:30.527Z,9.96
2022-09-13T00:09:58.707Z,10.09
2022-09-13T00:12:27.105Z,10.10
2022-09-13T00:14:55.283Z,10.09
2022-09-13T00:17:24.766Z,10.07
2022-09-13T00:19:52.897Z,10.06
2022-09-13T00:22:21.005Z,10.02
2022-09-13T00:24:49.185Z,10.05
2022-09-13T00:27:18.238Z,10.02
2022-09-13T00:29:46.378Z,10.00
2022-09-13T00:32:14.568Z,9.91
2022-09-13T00:34:44.135Z,9.82
2022-09-13T00:37:12.198Z,9.78
2022-09-13T00:39:40.433Z,9.67
2022-09-13T00:42:11.177Z,9.76
2022-09-13T00:44:57.727Z,9.83
2022-09-13T00:47:29.346Z,9.90
2022-09-13T00:50:03.247Z,9.85
2022-09-13T00:52:32.451Z,9.84
2022-09-13T00:55:07.187Z,9.83
2022-09-13T00:57:37.553Z,9.77
2022-09-13T01:00:11.839Z,9.77
2022-09-13T01:02:40.418Z,9.70
2022-09-13T01:05:10.536Z,9.55
2022-09-13T01:07:39.398Z,9.47
2022-09-13T01:10:08.818Z,9.50
2022-09-13T01:12:44.290Z,9.40
2022-09-13T01:15:12.758Z,9.35
2022-09-13T01:17:41.038Z,9.43
2022-09-13T01:20:11.989Z,9.45
2022-09-13T01:23:00.533Z,9.48
2022-09-13T01:25:56.248Z,9.46
2022-09-13T01:29:01.186Z,9.43
2022-09-13T01:31:36.468Z,9.46
2022-09-13T01:34:13.965Z,9.35
2022-09-13T01:36:52.716Z,9.33
2022-09-13T01:39:32.592Z,9.27
2022-09-13T01:42:09.723Z,9.25
2022-09-13T01:44:50.833Z,9.05
2022-09-13T01:47:27.257Z,9.28
2022-09-13T01:50:10.202Z,9.14
2022-09-13T01:52:44.756Z,9.08
2022-09-13T01:55:17.963Z,9.05
2022-09-13T01:57:51.842Z,9.12
2022-09-13T02:00:20.526Z,9.18
2022-09-13T02:02:52.734Z,9.22
2022-09-13T02:05:32.892Z,9.24
2022-09-13T02:08:03.693Z,9.20
2022-09-13T02:10:39.538Z,8.97
2022-09-13T02:13:11.791Z,9.14
2022-09-13T02:15:43.470Z,9.17
2022-09-13T02:18:19.141Z,9.21
2022-09-13T02:20:50.091Z,9.23
2022-09-13T02:23:21.471Z,9.24
2022-09-13T02:25:50.715Z,9.22
2022-09-13T02:28:23.415Z,9.19
2022-09-13T02:30:54.066Z,9.20
2022-09-13T02:33:28.376Z,8.98
2022-09-13T02:35:58.036Z,9.23
2022-09-13T02:38:29.668Z,9.17
2022-09-13T02:41:01.427Z,9.14
2022-09-13T02:43:34.592Z,9.13
2022-09-13T02:46:22.280Z,9.09
2022-09-13T02:49:00.589Z,8.95
2022-09-13T02:51:34.989Z,8.91
2022-09-13T02:54:12.501Z,8.83
2022-09-13T02:56:48.239Z,8.83
2022-09-13T02:59:18.017Z,8.84
2022-09-13T03:01:51.202Z,8.77
2022-09-13T03:04:21.650Z,8.77
2022-09-13T03:06:51.458Z,8.81
2022-09-13T03:09:19.938Z,8.89
2022-09-13T03:11:58.795Z,8.91
2022-09-13T03:14:36.258Z,8.92
2022-09-13T03:17:15.797Z,8.96
2022-09-13T03:19:55.178Z,8.93
2022-09-13T03:22:39.108Z,8.87
2022-09-13T03:25:11.731Z,8.79
2022-09-13T03:27:45.799Z,8.82
2022-09-13T03:30:15.358Z,8.78
2022-09-13T03:32:49.288Z,8.68
2022-09-13T03:35:25.659Z,8.60
2022-09-13T03:37:59.259Z,8.59
2022-09-13T03:40:36.618Z,8.52
2022-09-13T03:43:08.688Z,8.43
2022-09-13T03:45:41.391Z,8.40
2022-09-13T03:48:11.219Z,8.44
2022-09-13T03:50:41.258Z,8.41
2022-09-13T03:53:12.289Z,8.43
2022-09-13T03:55:43.038Z,8.47
2022-09-13T03:58:13.540Z,8.58
2022-09-13T04:00:41.988Z,8.68
2022-09-13T04:03:10.767Z,8.76
2022-09-13T04:05:40.639Z,8.84
2022-09-13T04:08:09.159Z,8.91
2022-09-13T04:10:38.139Z,8.98
2022-09-13T04:13:06.478Z,9.05
2022-09-13T04:15:34.821Z,9.12
2022-09-13T04:18:03.065Z,9.11
2022-09-13T04:20:31.546Z,9.04
2022-09-13T04:23:01.179Z,9.05
2022-09-13T04:25:29.449Z,9.06
2022-09-13T04:27:59.971Z,9.09
2022-09-13T04:30:28.671Z,9.13
2022-09-13T04:32:59.769Z,8.86
2022-09-13T04:35:29.150Z,8.71
2022-09-13T04:37:58.408Z,8.92
2022-09-13T04:40:28.061Z,9.06
2022-09-13T04:42:58.835Z,8.94
2022-09-13T04:45:27.369Z,9.03
2022-09-13T04:47:56.732Z,9.08
2022-09-13T04:50:25.880Z,9.07
2022-09-13T04:52:56.752Z,9.00
2022-09-13T04:55:26.209Z,8.97
2022-09-13T04:57:56.829Z,8.83
2022-09-13T05:00:25.778Z,8.98
2022-09-13T05:02:57.529Z,8.86
2022-09-13T05:05:28.998Z,8.82
2022-09-13T05:07:57.592Z,8.90
2022-09-13T05:10:25.840Z,9.00
2022-09-13T05:12:55.967Z,9.17
2022-09-13T05:15:24.198Z,9.30
2022-09-13T05:17:52.498Z,9.42
2022-09-13T05:20:21.360Z,9.51
2022-09-13T05:22:49.681Z,9.62
2022-09-13T05:25:18.122Z,9.65
2022-09-13T05:27:47.542Z,9.43
2022-09-13T05:30:17.438Z,9.73
2022-09-13T05:32:45.805Z,9.71
2022-09-13T05:35:14.202Z,9.64
2022-09-13T05:37:42.598Z,9.60
2022-09-13T05:40:12.469Z,9.63
2022-09-13T05:42:41.275Z,9.61
2022-09-13T05:45:10.718Z,9.53
2022-09-13T05:47:40.648Z,9.52
2022-09-13T05:50:13.674Z,9.39
2022-09-13T05:52:54.086Z,9.32
2022-09-13T05:55:22.861Z,9.33
2022-09-13T05:57:51.453Z,9.49
2022-09-13T06:00:19.881Z,9.50
2022-09-13T06:02:49.606Z,9.59
2022-09-13T06:05:18.104Z,9.74
2022-09-13T06:07:46.861Z,9.89
2022-09-13T06:10:15.111Z,10.03
2022-09-13T06:12:43.428Z,10.12
2022-09-13T06:15:11.898Z,10.26
2022-09-13T06:17:40.249Z,10.41
2022-09-13T06:20:11.740Z,10.37
2022-09-13T06:22:40.108Z,10.79
2022-09-13T06:25:09.571Z,10.91
2022-09-13T06:27:37.870Z,11.01
2022-09-13T06:30:09.070Z,11.09
2022-09-13T06:32:37.513Z,11.20
2022-09-13T06:35:06.393Z,11.22
2022-09-13T06:37:36.122Z,11.19
2022-09-13T06:40:06.452Z,11.24
2022-09-13T06:42:35.931Z,11.34
2022-09-13T06:45:04.299Z,11.51
2022-09-13T06:47:32.613Z,11.60
2022-09-13T06:50:01.152Z,11.77
2022-09-13T06:52:29.561Z,11.88
2022-09-13T06:54:59.302Z,11.89
2022-09-13T06:57:27.871Z,12.00
2022-09-13T06:59:56.051Z,12.07
2022-09-13T07:02:25.244Z,12.28
2022-09-13T07:04:53.521Z,12.36
2022-09-13T07:07:22.139Z,12.51
2022-09-13T07:09:50.431Z,12.59
2022-09-13T07:12:20.698Z,12.65
2022-09-13T07:14:49.351Z,12.82
2022-09-13T07:17:17.572Z,13.01
2022-09-13T07:19:45.875Z,13.13
2022-09-13T07:22:14.061Z,13.30
2022-09-13T07:24:42.372Z,13.40
2022-09-13T07:27:10.717Z,13.56
2022-09-13T07:29:40.453Z,13.80
2022-09-13T07:32:08.663Z,13.72
2022-09-13T07:34:38.277Z,14.00
2022-09-13T07:37:06.522Z,14.17
2022-09-13T07:39:34.850Z,14.20
2022-09-13T07:42:03.062Z,14.22
2022-09-13T07:44:31.368Z,14.29
2022-09-13T07:47:01.003Z,14.37
2022-09-13T07:49:29.322Z,14.47
2022-09-13T07:51:57.513Z,14.45
2022-09-13T07:54:25.912Z,14.39
2022-09-13T07:56:54.202Z,14.37
2022-09-13T07:59:24.920Z,14.26
2022-09-13T08:01:55.327Z,14.29
2022-09-13T08:04:26.774Z,14.42
2022-09-13T08:06:55.072Z,14.54
2022-09-13T08:09:24.632Z,14.61
2022-09-13T08:11:53.554Z,14.68
2022-09-13T08:14:22.960Z,14.65
2022-09-13T08:16:51.263Z,14.74
2022-09-13T08:19:20.423Z,14.65
2022-09-13T08:21:50.104Z,14.62
2022-09-13T08:24:19.832Z,14.73
2022-09-13T08:26:48.125Z,14.81
2022-09-13T08:29:17.162Z,14.70
2022-09-13T08:31:45.580Z,15.00
2022-09-13T08:34:14.852Z,15.13
2022-09-13T08:36:43.279Z,15.32
2022-09-13T08:39:14.134Z,15.41
2022-09-13T08:42:02.962Z,15.44
2022-09-13T08:44:33.602Z,15.39
2022-09-13T08:47:09.503Z,15.62
2022-09-13T08:49:41.551Z,15.67
2022-09-13T08:52:28.822Z,15.82
2022-09-13T08:54:58.942Z,16.19
2022-09-13T08:57:32.564Z,16.46
2022-09-13T09:00:06.453Z,16.61
2022-09-13T09:02:53.463Z,16.71
2022-09-13T09:05:23.443Z,16.75
2022-09-13T09:07:55.173Z,16.81
2022-09-13T09:10:27.185Z,16.78
2022-09-13T09:12:58.415Z,16.63
2022-09-13T09:15:28.714Z,16.51
2022-09-13T09:18:00.993Z,16.29
2022-09-13T09:20:33.415Z,16.40
2022-09-13T09:23:04.863Z,16.35
2022-09-13T09:25:36.233Z,16.32
2022-09-13T09:28:13.164Z,16.60
2022-09-13T09:30:47.011Z,16.73
2022-09-13T09:33:36.992Z,16.88
2022-09-13T09:36:11.623Z,16.95
2022-09-13T09:38:42.999Z,17.17
2022-09-13T09:41:25.911Z,17.31
2022-09-13T09:44:00.244Z,17.71
2022-09-13T09:46:31.992Z,18.07
2022-09-13T09:49:26.414Z,18.19
2022-09-13T09:51:56.644Z,18.22
2022-09-13T09:54:25.711Z,18.29
2022-09-13T09:56:56.604Z,18.52
2022-09-13T09:59:28.824Z,18.50
2022-09-13T10:01:58.062Z,18.82
2022-09-13T10:04:27.041Z,18.85
2022-09-13T10:07:15.548Z,18.62
2022-09-13T10:09:57.620Z,18.74
2022-09-13T10:12:29.574Z,18.70
2022-09-13T10:15:17.545Z,18.75
2022-09-13T10:18:02.926Z,18.65
2022-09-13T10:20:31.709Z,18.99
2022-09-13T10:23:20.357Z,19.13
2022-09-13T10:26:09.004Z,18.80
2022-09-13T10:28:48.361Z,18.84
2022-09-13T10:31:17.895Z,18.86
2022-09-13T10:33:53.675Z,18.68
2022-09-13T10:36:50.571Z,18.56
2022-09-13T10:39:18.138Z,18.38
2022-09-13T10:41:51.734Z,18.33
2022-09-13T10:44:29.525Z,18.25
2022-09-13T10:46:58.924Z,18.11
2022-09-13T10:49:48.785Z,18.44
2022-09-13T10:52:32.375Z,18.57
2022-09-13T10:55:25.558Z,18.72
2022-09-13T10:57:55.443Z,18.57
2022-09-13T11:00:31.283Z,18.73
2022-09-13T11:03:32.504Z,18.64
2022-09-13T11:06:05.116Z,18.31
2022-09-13T11:08:40.403Z,18.30
2022-09-13T11:11:20.893Z,18.11
2022-09-13T11:14:00.636Z,18.08
2022-09-13T11:16:39.684Z,17.98
2022-09-13T11:19:48.214Z,17.85
2022-09-13T11:22:35.384Z,17.64
2022-09-13T11:25:13.623Z,17.65
2022-09-13T11:27:49.195Z,17.74
2022-09-13T11:30:19.736Z,17.81
2022-09-13T11:33:11.687Z,17.85
2022-09-13T11:35:53.083Z,17.87
2022-09-13T11:38:38.257Z,17.97
2022-09-13T11:41:17.036Z,18.15
2022-09-13T11:43:57.915Z,18.20
2022-09-13T11:46:29.221Z,17.99
2022-09-13T11:49:33.998Z,18.15
2022-09-13T11:52:10.295Z,18.32
2022-09-13T11:54:50.566Z,18.51
2022-09-13T11:57:21.647Z,19.19
2022-09-13T11:59:54.707Z,19.68
2022-09-13T12:02:28.292Z,20.20
2022-09-13T12:05:21.037Z,20.40
2022-09-13T12:07:51.595Z,20.44
2022-09-13T12:10:25.465Z,20.26
2022-09-13T12:12:54.654Z,20.40
2022-09-13T12:15:34.635Z,20.45
2022-09-13T12:18:05.781Z,20.44
2022-09-13T12:20:38.158Z,20.23
2022-09-13T12:23:11.463Z,20.29
2022-09-13T12:25:46.046Z,20.48
2022-09-13T12:28:20.086Z,20.64
2022-09-13T12:30:52.438Z,20.79
2022-09-13T12:33:21.506Z,20.80
2022-09-13T12:36:06.926Z,20.98
2022-09-13T12:38:47.397Z,21.16
2022-09-13T12:41:33.967Z,21.22
2022-09-13T12:44:42.656Z,21.00
2022-09-13T12:47:38.866Z,20.61
2022-09-13T12:50:42.430Z,20.12
2022-09-13T12:53:23.750Z,19.84
2022-09-13T12:56:02.277Z,19.51
2022-09-13T12:58:54.727Z,19.36
2022-09-13T13:01:24.155Z,19.46
2022-09-13T13:03:54.635Z,19.45
2022-09-13T13:06:30.320Z,19.20
2022-09-13T13:09:02.026Z,19.31
2022-09-13T13:11:32.257Z,19.40
2022-09-13T13:14:03.679Z,19.61
2022-09-13T13:16:34.347Z,19.60
2022-09-13T13:19:03.806Z,19.64
2022-09-13T13:21:42.250Z,19.54
2022-09-13T13:24:48.966Z,19.44
2022-09-13T13:27:48.363Z,19.30
2022-09-13T13:30:40.706Z,19.22
2022-09-13T13:33:17.050Z,19.00
2022-09-13T13:35:45.509Z,19.00
2022-09-13T13:38:48.298Z,18.90
2022-09-13T13:41:48.218Z,18.73
2022-09-13T13:44:53.889Z,18.63
2022-09-13T13:48:05.433Z,18.74
2022-09-13T13:50:39.269Z,18.61
2022-09-13T13:53:34.477Z,18.52
2022-09-13T13:56:17.473Z,18.48
2022-09-13T13:58:52.783Z,18.37
2022-09-13T14:01:25.286Z,18.40
2022-09-13T14:04:44.179Z,18.32
2022-09-13T14:07:20.175Z,18.35
2022-09-13T14:09:54.400Z,18.25
2022-09-13T14:12:33.215Z,18.20
2022-09-13T14:15:11.886Z,18.17
2022-09-13T14:18:00.182Z,18.02
2022-09-13T14:20:28.710Z,18.04
2022-09-13T14:23:17.711Z,18.15
2022-09-13T14:25:46.343Z,18.38
2022-09-13T14:28:18.485Z,18.57
2022-09-13T14:30:48.234Z,18.80
2022-09-13T14:33:26.807Z,18.80
2022-09-13T14:36:03.470Z,18.88
2022-09-13T14:38:35.603Z,19.09
2022-09-13T14:41:14.529Z,19.13
2022-09-13T14:43:42.949Z,19.27
2022-09-13T14:46:14.473Z,19.26
2022-09-13T14:48:43.888Z,19.49
2022-09-13T14:51:19.499Z,19.57
2022-09-13T14:53:49.305Z,19.56
2022-09-13T14:56:29.371Z,19.63
2022-09-13T14:59:00.731Z,19.65
2022-09-13T15:01:31.848Z,19.55
2022-09-13T15:04:01.674Z,19.52
2022-09-13T15:06:32.258Z,19.41
2022-09-13T15:09:27.851Z,19.38
2022-09-13T15:11:59.053Z,19.34
2022-09-13T15:14:28.786Z,19.27
2022-09-13T15:17:01.638Z,19.65
2022-09-13T15:19:33.038Z,19.80
2022-09-13T15:22:15.967Z,19.86
2022-09-13T15:24:46.949Z,19.85
2022-09-13T15:27:23.533Z,19.90
2022-09-13T15:29:53.968Z,20.14
2022-09-13T15:32:32.352Z,20.11
2022-09-13T15:35:02.540Z,20.32
2022-09-13T15:37:37.335Z,20.02
2022-09-13T15:40:23.545Z,20.12
2022-09-13T15:42:54.128Z,19.86
2022-09-13T15:45:23.599Z,19.92
2022-09-13T15:47:54.298Z,19.72
2022-09-13T15:50:27.016Z,19.74
2022-09-13T15:52:55.559Z,19.56
2022-09-13T15:55:24.282Z,19.38
2022-09-13T15:57:52.727Z,19.38
2022-09-13T16:00:22.982Z,19.44
2022-09-13T16:02:52.992Z,19.36
2022-09-13T16:05:21.651Z,19.21
2022-09-13T16:07:50.100Z,19.28
2022-09-13T16:10:20.207Z,19.07
2022-09-13T16:12:48.709Z,19.08
2022-09-13T16:15:17.378Z,18.97
2022-09-13T16:17:45.744Z,18.91
2022-09-13T16:20:17.293Z,18.86
2022-09-13T16:22:45.510Z,18.75
2022-09-13T16:25:14.558Z,18.69
2022-09-13T16:27:43.062Z,18.70
2022-09-13T16:30:13.601Z,18.66
2022-09-13T16:32:42.642Z,18.58
2022-09-13T16:35:11.812Z,18.51
2022-09-13T16:37:42.119Z,18.40
2022-09-13T16:40:11.711Z,18.37
2022-09-13T16:42:40.492Z,18.33
2022-09-13T16:45:09.940Z,18.22
2022-09-13T16:47:38.411Z,18.17
2022-09-13T16:50:07.903Z,18.08
2022-09-13T16:52:36.881Z,18.02
2022-09-13T16:55:08.821Z,17.78
2022-09-13T16:57:37.488Z,17.90
2022-09-13T17:00:09.248Z,17.83
2022-09-13T17:02:37.926Z,17.81
2022-09-13T17:05:08.698Z,17.82
2022-09-13T17:07:37.250Z,17.72
2022-09-13T17:10:08.512Z,17.64
2022-09-13T17:12:36.830Z,17.59
2022-09-13T17:15:05.823Z,17.46
2022-09-13T17:17:36.429Z,17.33
2022-09-13T17:20:09.252Z,17.24
2022-09-13T17:22:37.665Z,17.16
2022-09-13T17:25:09.112Z,16.96
2022-09-13T17:27:37.473Z,17.04
2022-09-13T17:30:07.007Z,17.02
2022-09-13T17:32:35.386Z,16.98
2022-09-13T17:35:03.685Z,16.96
2022-09-13T17:37:31.882Z,17.00
2022-09-13T17:40:00.253Z,16.99
2022-09-13T17:42:30.028Z,16.99
2022-09-13T17:44:58.615Z,16.92
2022-09-13T17:47:26.888Z,16.85
2022-09-13T17:49:56.233Z,16.78
2022-09-13T17:52:24.449Z,16.73
2022-09-13T17:54:52.691Z,16.70
2022-09-13T17:57:21.022Z,16.70
2022-09-13T17:59:52.019Z,16.64
2022-09-13T18:02:21.926Z,16.60
2022-09-13T18:04:51.851Z,16.61
2022-09-13T18:07:20.234Z,16.64
2022-09-13T18:09:48.591Z,16.64
2022-09-13T18:12:16.811Z,16.58
2022-09-13T18:14:45.077Z,16.57
2022-09-13T18:17:14.781Z,16.56
2022-09-13T18:19:47.259Z,16.56
2022-09-13T18:22:15.861Z,16.56
2022-09-13T18:24:44.231Z,16.39
2022-09-13T18:27:12.492Z,16.52
2022-09-13T18:29:40.831Z,16.49
2022-09-13T18:32:09.220Z,16.48
2022-09-13T18:34:38.993Z,16.48
2022-09-13T18:37:07.212Z,16.45
2022-09-13T18:39:35.940Z,16.46
2022-09-13T18:42:04.273Z,16.47
2022-09-13T18:44:34.191Z,16.46
2022-09-13T18:47:03.992Z,16.40
2022-09-13T18:49:32.349Z,16.31
2022-09-13T18:52:02.043Z,16.29
2022-09-13T18:54:30.305Z,16.28
2022-09-13T18:56:59.652Z,16.30
2022-09-13T18:59:28.249Z,16.28
2022-09-13T19:01:56.750Z,16.23
2022-09-13T19:04:25.154Z,16.19
2022-09-13T19:06:55.915Z,16.12
2022-09-13T19:09:25.844Z,16.06
2022-09-13T19:11:55.234Z,16.01
2022-09-13T19:14:25.292Z,15.98
2022-09-13T19:16:55.902Z,15.83
2022-09-13T19:19:24.332Z,15.99
2022-09-13T19:21:52.560Z,16.00
2022-09-13T19:24:21.583Z,15.99
2022-09-13T19:26:52.723Z,16.08
2022-09-13T19:29:23.131Z,16.17
2022-09-13T19:31:53.413Z,16.10
2022-09-13T19:34:23.423Z,16.12
2022-09-13T19:36:57.632Z,16.14
2022-09-13T19:39:29.486Z,16.10
2022-09-13T19:42:01.017Z,16.09
2022-09-13T19:44:29.534Z,15.96
2022-09-13T19:47:36.403Z,16.02
2022-09-13T19:49:45.765Z,15.88
2022-09-13T19:52:13.902Z,15.77
2022-09-13T19:54:42.061Z,15.68
2022-09-13T19:57:11.579Z,15.58
2022-09-13T19:59:39.814Z,15.54
2022-09-13T20:02:08.005Z,15.42
2022-09-13T20:04:36.448Z,15.43
2022-09-13T20:07:04.624Z,15.45
2022-09-13T20:09:32.824Z,15.46
2022-09-13T20:12:01.337Z,15.46
2022-09-13T20:14:31.942Z,15.49
2022-09-13T20:17:00.435Z,15.51
2022-09-13T20:19:49.278Z,15.50
2022-09-13T20:22:17.090Z,15.43
2022-09-13T20:24:45.208Z,15.57
2022-09-13T20:27:13.558Z,15.57
2022-09-13T20:29:43.136Z,15.56
2022-09-13T20:32:11.432Z,15.56
2022-09-13T20:34:39.596Z,15.47
2022-09-13T20:37:07.688Z,15.40
2022-09-13T20:39:35.955Z,15.34
2022-09-13T20:42:04.036Z,15.21
2022-09-13T20:44:32.175Z,15.14
2022-09-13T20:47:01.836Z,15.05
2022-09-13T20:49:30.486Z,15.01
2022-09-13T20:51:58.856Z,14.97
2022-09-13T20:54:27.369Z,14.93
2022-09-13T20:56:55.456Z,14.92
2022-09-13T20:59:23.785Z,14.90
2022-09-13T21:01:52.036Z,14.84
2022-09-13T21:04:22.268Z,14.78
2022-09-13T21:07:10.988Z,14.84
2022-09-13T21:09:41.959Z,14.80
2022-09-13T21:12:10.589Z,14.83
2022-09-13T21:14:38.736Z,14.76
2022-09-13T21:17:08.659Z,14.74
2022-09-13T21:19:38.286Z,14.66
2022-09-13T21:22:06.448Z,14.61
2022-09-13T21:24:35.218Z,14.62
2022-09-13T21:27:03.394Z,14.56
2022-09-13T21:29:31.917Z,14.51
2022-09-13T21:32:00.026Z,14.45
2022-09-13T21:34:29.839Z,14.46
2022-09-13T21:36:59.356Z,14.40
2022-09-13T21:39:27.585Z,14.35
2022-09-13T21:41:55.647Z,14.31
2022-09-13T21:44:23.819Z,14.27
2022-09-13T21:46:52.700Z,14.23
2022-09-13T21:49:20.956Z,14.15
2022-09-13T21:51:49.888Z,14.11
2022-09-13T21:54:20.706Z,14.12
2022-09-13T21:56:51.675Z,14.08
2022-09-13T21:59:21.193Z,14.04
2022-09-13T22:01:51.394Z,14.00
2022-09-13T22:04:22.440Z,13.89
2022-09-13T22:06:53.718Z,13.88
2022-09-13T22:09:27.167Z,13.79
2022-09-13T22:11:55.952Z,13.75
2022-09-13T22:14:24.447Z,13.60
2022-09-13T22:16:53.700Z,13.74
2022-09-13T22:19:24.020Z,13.75
2022-09-13T22:21:55.608Z,13.82
2022-09-13T22:24:26.727Z,13.81
2022-09-13T22:26:56.569Z,13.82
2022-09-13T22:29:25.309Z,13.83
2022-09-13T22:31:53.906Z,13.70
2022-09-13T22:34:24.230Z,13.87
2022-09-13T22:36:52.526Z,13.88
2022-09-13T22:39:20.655Z,13.91
2022-09-13T22:41:50.397Z,13.91
2022-09-13T22:44:18.619Z,13.89
2022-09-13T22:46:47.429Z,13.76
2022-09-13T22:49:17.358Z,13.93
2022-09-13T22:51:46.478Z,13.73
2022-09-13T22:54:15.220Z,14.01
2022-09-13T22:56:43.779Z,14.05
2022-09-13T22:59:15.750Z,14.08
2022-09-13T23:01:44.270Z,14.14
2022-09-13T23:04:12.976Z,14.15
2022-09-13T23:06:43.931Z,14.16
2022-09-13T23:09:13.520Z,14.08
2022-09-13T23:11:41.985Z,14.24
2022-09-13T23:14:12.380Z,14.19
2022-09-13T23:16:43.371Z,14.30
2022-09-13T23:19:13.107Z,14.28
2022-09-13T23:21:41.806Z,14.18
2022-09-13T23:24:13.881Z,14.11
2022-09-13T23:26:42.278Z,14.06
2022-09-13T23:29:13.999Z,14.04
2022-09-13T23:31:43.885Z,14.05
2022-09-13T23:34:12.812Z,14.12
2022-09-13T23:36:42.523Z,14.15
2022-09-13T23:39:14.172Z,14.18
2022-09-13T23:41:42.300Z,14.19
2022-09-13T23:44:10.450Z,14.18
2022-09-13T23:46:38.998Z,14.09
2022-09-13T23:49:08.544Z,14.31
2022-09-13T23:51:36.759Z,14.37
2022-09-13T23:54:05.232Z,14.37
2022-09-13T23:56:33.980Z,14.39
2022-09-13T23:59:03.481Z,14.29
